sensor_id;sensor_type;location;lat;lon;timestamp;P1;durP1;ratioP1;P2;durP2;ratioP2
72864;SDS011;61000;48.120;11.548;2023-07-30T00:00:27;1.75;;;1.65;;
72864;SDS011;61000;48.120;11.548;2023-07-30T00:02:54;3.33;;;1.45;;
72864;SDS011;61000;48.120;11.548;2023-07-30T00:05:21;2.70;;;1.77;;
72864;SDS011;61000;48.120;11.548;2023-07-30T00:07:49;1.70;;;1.60;;
72864;SDS011;61000;48.120;11.548;2023-07-30T00:10:16;3.03;;;1.83;;
72864;SDS011;61000;48.120;11.548;2023-07-30T00:12:43;1.80;;;1.70;;
72864;SDS011;61000;48.120;11.548;2023-07-30T00:15:10;3.63;;;2.45;;
72864;SDS011;61000;48.120;11.548;2023-07-30T00:17:38;3.15;;;2.17;;
72864;SDS011;61000;48.120;11.548;2023-07-30T00:20:06;2.50;;;1.90;;
72864;SDS011;61000;48.120;11.548;2023-07-30T00:22:33;2.13;;;1.92;;
72864;SDS011;61000;48.120;11.548;2023-07-30T00:25:02;2.72;;;2.00;;
72864;SDS011;61000;48.120;11.548;2023-07-30T00:27:29;1.85;;;1.63;;
72864;SDS011;61000;48.120;11.548;2023-07-30T00:29:56;4.50;;;2.03;;
72864;SDS011;61000;48.120;11.548;2023-07-30T00:32:23;1.50;;;1.40;;
72864;SDS011;61000;48.120;11.548;2023-07-30T00:34:50;2.72;;;1.88;;
72864;SDS011;61000;48.120;11.548;2023-07-30T00:37:16;1.45;;;1.35;;
72864;SDS011;61000;48.120;11.548;2023-07-30T00:39:43;2.13;;;1.73;;
72864;SDS011;61000;48.120;11.548;2023-07-30T00:42:11;1.90;;;1.75;;
72864;SDS011;61000;48.120;11.548;2023-07-30T00:44:39;2.70;;;1.80;;
72864;SDS011;61000;48.120;11.548;2023-07-30T00:47:06;1.60;;;1.50;;
72864;SDS011;61000;48.120;11.548;2023-07-30T00:49:33;1.75;;;1.60;;
72864;SDS011;61000;48.120;11.548;2023-07-30T00:52:00;3.30;;;2.03;;
72864;SDS011;61000;48.120;11.548;2023-07-30T00:54:27;2.00;;;1.80;;
72864;SDS011;61000;48.120;11.548;2023-07-30T00:56:55;2.05;;;1.40;;
72864;SDS011;61000;48.120;11.548;2023-07-30T00:59:23;1.88;;;1.67;;
72864;SDS011;61000;48.120;11.548;2023-07-30T01:01:51;2.28;;;2.05;;
72864;SDS011;61000;48.120;11.548;2023-07-30T01:04:18;3.67;;;1.80;;
72864;SDS011;61000;48.120;11.548;2023-07-30T01:06:45;1.90;;;1.80;;
72864;SDS011;61000;48.120;11.548;2023-07-30T01:09:12;2.33;;;1.77;;
72864;SDS011;61000;48.120;11.548;2023-07-30T01:11:39;1.95;;;1.65;;
72864;SDS011;61000;48.120;11.548;2023-07-30T01:14:07;3.35;;;1.80;;
72864;SDS011;61000;48.120;11.548;2023-07-30T01:16:36;1.55;;;1.38;;
72864;SDS011;61000;48.120;11.548;2023-07-30T01:19:03;1.80;;;1.70;;
72864;SDS011;61000;48.120;11.548;2023-07-30T01:21:33;2.88;;;2.15;;
72864;SDS011;61000;48.120;11.548;2023-07-30T01:24:01;2.10;;;1.90;;
72864;SDS011;61000;48.120;11.548;2023-07-30T01:26:30;1.77;;;1.63;;
72864;SDS011;61000;48.120;11.548;2023-07-30T01:29:01;3.05;;;1.67;;
72864;SDS011;61000;48.120;11.548;2023-07-30T01:31:33;1.75;;;1.63;;
72864;SDS011;61000;48.120;11.548;2023-07-30T01:34:02;1.80;;;1.70;;
72864;SDS011;61000;48.120;11.548;2023-07-30T01:36:30;2.10;;;1.75;;
72864;SDS011;61000;48.120;11.548;2023-07-30T01:39:00;1.98;;;1.88;;
72864;SDS011;61000;48.120;11.548;2023-07-30T01:41:27;2.13;;;1.88;;
72864;SDS011;61000;48.120;11.548;2023-07-30T01:43:54;1.65;;;1.55;;
72864;SDS011;61000;48.120;11.548;2023-07-30T01:46:22;3.42;;;1.85;;
72864;SDS011;61000;48.120;11.548;2023-07-30T01:48:48;2.05;;;1.85;;
72864;SDS011;61000;48.120;11.548;2023-07-30T01:51:15;2.20;;;1.98;;
72864;SDS011;61000;48.120;11.548;2023-07-30T01:53:42;2.40;;;1.95;;
72864;SDS011;61000;48.120;11.548;2023-07-30T01:56:10;7.15;;;2.15;;
72864;SDS011;61000;48.120;11.548;2023-07-30T01:58:37;4.88;;;2.10;;
72864;SDS011;61000;48.120;11.548;2023-07-30T02:01:04;2.05;;;1.85;;
72864;SDS011;61000;48.120;11.548;2023-07-30T02:03:31;2.20;;;2.00;;
72864;SDS011;61000;48.120;11.548;2023-07-30T02:05:58;2.22;;;2.00;;
72864;SDS011;61000;48.120;11.548;2023-07-30T02:08:24;1.60;;;1.50;;
72864;SDS011;61000;48.120;11.548;2023-07-30T02:10:55;2.42;;;2.03;;
72864;SDS011;61000;48.120;11.548;2023-07-30T02:13:24;2.30;;;2.00;;
72864;SDS011;61000;48.120;11.548;2023-07-30T02:15:51;2.40;;;1.80;;
72864;SDS011;61000;48.120;11.548;2023-07-30T02:18:18;3.17;;;2.40;;
72864;SDS011;61000;48.120;11.548;2023-07-30T02:20:45;2.05;;;1.85;;
72864;SDS011;61000;48.120;11.548;2023-07-30T02:23:13;3.28;;;2.30;;
72864;SDS011;61000;48.120;11.548;2023-07-30T02:25:40;2.33;;;1.88;;
72864;SDS011;61000;48.120;11.548;2023-07-30T02:28:07;3.00;;;2.00;;
72864;SDS011;61000;48.120;11.548;2023-07-30T02:30:35;2.63;;;2.28;;
72864;SDS011;61000;48.120;11.548;2023-07-30T02:33:02;3.35;;;2.25;;
72864;SDS011;61000;48.120;11.548;2023-07-30T02:35:29;2.20;;;1.90;;
72864;SDS011;61000;48.120;11.548;2023-07-30T02:37:56;2.20;;;1.83;;
72864;SDS011;61000;48.120;11.548;2023-07-30T02:40:23;2.33;;;1.92;;
72864;SDS011;61000;48.120;11.548;2023-07-30T02:42:50;2.30;;;2.00;;
72864;SDS011;61000;48.120;11.548;2023-07-30T02:45:17;1.98;;;1.77;;
72864;SDS011;61000;48.120;11.548;2023-07-30T02:47:45;2.13;;;1.92;;
72864;SDS011;61000;48.120;11.548;2023-07-30T02:50:12;2.58;;;2.33;;
72864;SDS011;61000;48.120;11.548;2023-07-30T02:52:39;2.38;;;2.17;;
72864;SDS011;61000;48.120;11.548;2023-07-30T02:55:06;2.10;;;1.90;;
72864;SDS011;61000;48.120;11.548;2023-07-30T02:57:33;3.20;;;2.10;;
72864;SDS011;61000;48.120;11.548;2023-07-30T03:00:00;2.03;;;1.83;;
72864;SDS011;61000;48.120;11.548;2023-07-30T03:02:28;3.45;;;2.10;;
72864;SDS011;61000;48.120;11.548;2023-07-30T03:04:57;5.65;;;4.95;;
72864;SDS011;61000;48.120;11.548;2023-07-30T03:07:24;3.45;;;2.35;;
72864;SDS011;61000;48.120;11.548;2023-07-30T03:09:51;4.00;;;2.25;;
72864;SDS011;61000;48.120;11.548;2023-07-30T03:12:18;2.47;;;2.28;;
72864;SDS011;61000;48.120;11.548;2023-07-30T03:14:45;2.33;;;2.13;;
72864;SDS011;61000;48.120;11.548;2023-07-30T03:17:12;2.45;;;2.25;;
72864;SDS011;61000;48.120;11.548;2023-07-30T03:19:39;3.17;;;2.35;;
72864;SDS011;61000;48.120;11.548;2023-07-30T03:22:07;2.10;;;1.90;;
72864;SDS011;61000;48.120;11.548;2023-07-30T03:24:34;2.30;;;2.10;;
72864;SDS011;61000;48.120;11.548;2023-07-30T03:27:01;4.15;;;2.50;;
72864;SDS011;61000;48.120;11.548;2023-07-30T03:29:28;2.85;;;2.50;;
72864;SDS011;61000;48.120;11.548;2023-07-30T03:31:55;2.92;;;2.30;;
72864;SDS011;61000;48.120;11.548;2023-07-30T03:34:22;4.07;;;2.28;;
72864;SDS011;61000;48.120;11.548;2023-07-30T03:36:49;2.78;;;2.58;;
72864;SDS011;61000;48.120;11.548;2023-07-30T03:39:17;4.30;;;2.20;;
72864;SDS011;61000;48.120;11.548;2023-07-30T03:41:44;5.70;;;2.58;;
72864;SDS011;61000;48.120;11.548;2023-07-30T03:44:11;3.13;;;2.45;;
72864;SDS011;61000;48.120;11.548;2023-07-30T03:46:38;2.33;;;2.13;;
72864;SDS011;61000;48.120;11.548;2023-07-30T03:49:05;3.03;;;2.72;;
72864;SDS011;61000;48.120;11.548;2023-07-30T03:51:32;3.10;;;2.10;;
72864;SDS011;61000;48.120;11.548;2023-07-30T03:54:00;3.88;;;2.80;;
72864;SDS011;61000;48.120;11.548;2023-07-30T03:56:28;2.53;;;2.33;;
72864;SDS011;61000;48.120;11.548;2023-07-30T03:58:55;3.35;;;2.55;;
72864;SDS011;61000;48.120;11.548;2023-07-30T04:01:23;4.90;;;2.83;;
72864;SDS011;61000;48.120;11.548;2023-07-30T04:03:50;3.40;;;2.60;;
72864;SDS011;61000;48.120;11.548;2023-07-30T04:06:17;3.58;;;2.60;;
72864;SDS011;61000;48.120;11.548;2023-07-30T04:08:44;2.90;;;2.60;;
72864;SDS011;61000;48.120;11.548;2023-07-30T04:11:11;2.92;;;2.60;;
72864;SDS011;61000;48.120;11.548;2023-07-30T04:13:39;5.32;;;2.80;;
72864;SDS011;61000;48.120;11.548;2023-07-30T04:16:07;6.55;;;5.55;;
72864;SDS011;61000;48.120;11.548;2023-07-30T04:18:34;4.40;;;3.20;;
72864;SDS011;61000;48.120;11.548;2023-07-30T04:21:00;3.45;;;3.00;;
72864;SDS011;61000;48.120;11.548;2023-07-30T04:23:27;2.58;;;2.38;;
72864;SDS011;61000;48.120;11.548;2023-07-30T04:25:54;3.22;;;2.58;;
72864;SDS011;61000;48.120;11.548;2023-07-30T04:28:21;6.55;;;2.97;;
72864;SDS011;61000;48.120;11.548;2023-07-30T04:30:49;2.85;;;2.47;;
72864;SDS011;61000;48.120;11.548;2023-07-30T04:33:16;2.58;;;2.35;;
72864;SDS011;61000;48.120;11.548;2023-07-30T04:35:43;2.67;;;2.40;;
72864;SDS011;61000;48.120;11.548;2023-07-30T04:38:10;2.65;;;2.40;;
72864;SDS011;61000;48.120;11.548;2023-07-30T04:40:38;3.78;;;2.83;;
72864;SDS011;61000;48.120;11.548;2023-07-30T04:43:05;3.10;;;2.65;;
72864;SDS011;61000;48.120;11.548;2023-07-30T04:45:33;2.72;;;2.10;;
72864;SDS011;61000;48.120;11.548;2023-07-30T04:48:01;2.55;;;2.35;;
72864;SDS011;61000;48.120;11.548;2023-07-30T04:50:28;2.50;;;2.30;;
72864;SDS011;61000;48.120;11.548;2023-07-30T04:52:55;2.35;;;2.15;;
72864;SDS011;61000;48.120;11.548;2023-07-30T04:55:22;2.55;;;2.20;;
72864;SDS011;61000;48.120;11.548;2023-07-30T04:57:49;2.35;;;2.15;;
72864;SDS011;61000;48.120;11.548;2023-07-30T05:00:16;2.97;;;2.67;;
72864;SDS011;61000;48.120;11.548;2023-07-30T05:02:43;2.30;;;2.10;;
72864;SDS011;61000;48.120;11.548;2023-07-30T05:05:11;3.03;;;2.30;;
72864;SDS011;61000;48.120;11.548;2023-07-30T05:07:38;3.38;;;2.42;;
72864;SDS011;61000;48.120;11.548;2023-07-30T05:10:05;2.17;;;1.98;;
72864;SDS011;61000;48.120;11.548;2023-07-30T05:12:35;2.55;;;2.35;;
72864;SDS011;61000;48.120;11.548;2023-07-30T05:15:02;2.50;;;2.03;;
72864;SDS011;61000;48.120;11.548;2023-07-30T05:17:29;3.88;;;2.20;;
72864;SDS011;61000;48.120;11.548;2023-07-30T05:19:56;5.40;;;2.10;;
72864;SDS011;61000;48.120;11.548;2023-07-30T05:22:24;2.45;;;2.10;;
72864;SDS011;61000;48.120;11.548;2023-07-30T05:24:51;2.20;;;2.00;;
72864;SDS011;61000;48.120;11.548;2023-07-30T05:27:18;2.90;;;2.58;;
72864;SDS011;61000;48.120;11.548;2023-07-30T05:29:45;6.25;;;2.30;;
72864;SDS011;61000;48.120;11.548;2023-07-30T05:32:11;2.28;;;2.00;;
72864;SDS011;61000;48.120;11.548;2023-07-30T05:34:38;2.28;;;2.08;;
72864;SDS011;61000;48.120;11.548;2023-07-30T05:37:05;3.17;;;2.30;;
72864;SDS011;61000;48.120;11.548;2023-07-30T05:39:33;2.50;;;2.30;;
72864;SDS011;61000;48.120;11.548;2023-07-30T05:42:00;2.20;;;2.00;;
72864;SDS011;61000;48.120;11.548;2023-07-30T05:44:27;2.40;;;2.20;;
72864;SDS011;61000;48.120;11.548;2023-07-30T05:46:54;3.03;;;2.10;;
72864;SDS011;61000;48.120;11.548;2023-07-30T05:49:21;2.53;;;2.10;;
72864;SDS011;61000;48.120;11.548;2023-07-30T05:51:48;3.10;;;2.15;;
72864;SDS011;61000;48.120;11.548;2023-07-30T05:54:16;1.95;;;1.85;;
72864;SDS011;61000;48.120;11.548;2023-07-30T05:56:44;2.38;;;2.17;;
72864;SDS011;61000;48.120;11.548;2023-07-30T05:59:11;2.50;;;2.30;;
72864;SDS011;61000;48.120;11.548;2023-07-30T06:01:39;5.78;;;2.17;;
72864;SDS011;61000;48.120;11.548;2023-07-30T06:04:06;2.33;;;2.10;;
72864;SDS011;61000;48.120;11.548;2023-07-30T06:06:33;6.53;;;3.53;;
72864;SDS011;61000;48.120;11.548;2023-07-30T06:09:00;4.00;;;3.55;;
72864;SDS011;61000;48.120;11.548;2023-07-30T06:11:27;2.30;;;2.10;;
72864;SDS011;61000;48.120;11.548;2023-07-30T06:13:55;2.30;;;2.10;;
72864;SDS011;61000;48.120;11.548;2023-07-30T06:16:22;4.03;;;2.53;;
72864;SDS011;61000;48.120;11.548;2023-07-30T06:18:49;3.38;;;2.03;;
72864;SDS011;61000;48.120;11.548;2023-07-30T06:21:16;3.55;;;2.30;;
72864;SDS011;61000;48.120;11.548;2023-07-30T06:23:43;4.85;;;2.17;;
72864;SDS011;61000;48.120;11.548;2023-07-30T06:26:10;2.25;;;1.88;;
72864;SDS011;61000;48.120;11.548;2023-07-30T06:28:36;2.22;;;2.03;;
72864;SDS011;61000;48.120;11.548;2023-07-30T06:31:05;2.30;;;2.10;;
72864;SDS011;61000;48.120;11.548;2023-07-30T06:33:32;2.03;;;1.83;;
72864;SDS011;61000;48.120;11.548;2023-07-30T06:36:00;3.13;;;2.30;;
72864;SDS011;61000;48.120;11.548;2023-07-30T06:38:27;2.85;;;2.30;;
72864;SDS011;61000;48.120;11.548;2023-07-30T06:40:53;2.35;;;2.00;;
72864;SDS011;61000;48.120;11.548;2023-07-30T06:43:22;2.35;;;2.15;;
72864;SDS011;61000;48.120;11.548;2023-07-30T06:45:49;2.92;;;1.73;;
72864;SDS011;61000;48.120;11.548;2023-07-30T06:48:17;2.97;;;1.90;;
72864;SDS011;61000;48.120;11.548;2023-07-30T06:50:44;4.18;;;1.90;;
72864;SDS011;61000;48.120;11.548;2023-07-30T06:53:11;2.75;;;1.73;;
72864;SDS011;61000;48.120;11.548;2023-07-30T06:55:38;2.05;;;1.85;;
72864;SDS011;61000;48.120;11.548;2023-07-30T06:58:05;1.83;;;1.58;;
72864;SDS011;61000;48.120;11.548;2023-07-30T07:00:31;2.50;;;2.00;;
72864;SDS011;61000;48.120;11.548;2023-07-30T07:02:58;3.15;;;1.90;;
72864;SDS011;61000;48.120;11.548;2023-07-30T07:05:27;3.08;;;2.03;;
72864;SDS011;61000;48.120;11.548;2023-07-30T07:07:53;2.10;;;1.90;;
72864;SDS011;61000;48.120;11.548;2023-07-30T07:10:20;2.58;;;1.67;;
72864;SDS011;61000;48.120;11.548;2023-07-30T07:12:47;2.75;;;1.75;;
72864;SDS011;61000;48.120;11.548;2023-07-30T07:15:15;1.80;;;1.70;;
72864;SDS011;61000;48.120;11.548;2023-07-30T07:17:41;2.65;;;1.92;;
72864;SDS011;61000;48.120;11.548;2023-07-30T07:20:08;2.63;;;1.83;;
72864;SDS011;61000;48.120;11.548;2023-07-30T07:22:38;2.22;;;2.00;;
72864;SDS011;61000;48.120;11.548;2023-07-30T07:25:05;4.20;;;2.30;;
72864;SDS011;61000;48.120;11.548;2023-07-30T07:27:32;1.83;;;1.63;;
72864;SDS011;61000;48.120;11.548;2023-07-30T07:29:59;6.15;;;1.90;;
72864;SDS011;61000;48.120;11.548;2023-07-30T07:32:26;2.83;;;1.80;;
72864;SDS011;61000;48.120;11.548;2023-07-30T07:34:53;2.08;;;1.80;;
72864;SDS011;61000;48.120;11.548;2023-07-30T07:37:20;2.03;;;1.80;;
72864;SDS011;61000;48.120;11.548;2023-07-30T07:39:48;1.98;;;1.63;;
72864;SDS011;61000;48.120;11.548;2023-07-30T07:42:15;2.20;;;2.00;;
72864;SDS011;61000;48.120;11.548;2023-07-30T07:44:42;1.98;;;1.65;;
72864;SDS011;61000;48.120;11.548;2023-07-30T07:47:11;2.03;;;1.40;;
72864;SDS011;61000;48.120;11.548;2023-07-30T07:49:38;2.08;;;1.85;;
72864;SDS011;61000;48.120;11.548;2023-07-30T07:52:05;1.83;;;1.60;;
72864;SDS011;61000;48.120;11.548;2023-07-30T07:54:32;3.10;;;1.98;;
72864;SDS011;61000;48.120;11.548;2023-07-30T07:57:01;2.28;;;1.60;;
72864;SDS011;61000;48.120;11.548;2023-07-30T07:59:28;2.45;;;2.25;;
72864;SDS011;61000;48.120;11.548;2023-07-30T08:01:54;2.50;;;2.30;;
72864;SDS011;61000;48.120;11.548;2023-07-30T08:04:21;3.00;;;2.20;;
72864;SDS011;61000;48.120;11.548;2023-07-30T08:06:48;1.70;;;1.60;;
72864;SDS011;61000;48.120;11.548;2023-07-30T08:09:15;1.70;;;1.60;;
72864;SDS011;61000;48.120;11.548;2023-07-30T08:11:42;1.85;;;1.70;;
72864;SDS011;61000;48.120;11.548;2023-07-30T08:14:10;5.30;;;2.08;;
72864;SDS011;61000;48.120;11.548;2023-07-30T08:16:37;4.75;;;1.92;;
72864;SDS011;61000;48.120;11.548;2023-07-30T08:19:04;1.85;;;1.75;;
72864;SDS011;61000;48.120;11.548;2023-07-30T08:21:31;2.10;;;1.60;;
72864;SDS011;61000;48.120;11.548;2023-07-30T08:23:58;1.67;;;1.58;;
72864;SDS011;61000;48.120;11.548;2023-07-30T08:26:24;1.75;;;1.52;;
72864;SDS011;61000;48.120;11.548;2023-07-30T08:28:51;2.33;;;1.52;;
72864;SDS011;61000;48.120;11.548;2023-07-30T08:31:19;2.15;;;1.60;;
72864;SDS011;61000;48.120;11.548;2023-07-30T08:33:49;2.17;;;1.85;;
72864;SDS011;61000;48.120;11.548;2023-07-30T08:36:16;1.77;;;1.52;;
72864;SDS011;61000;48.120;11.548;2023-07-30T08:38:43;1.98;;;1.60;;
72864;SDS011;61000;48.120;11.548;2023-07-30T08:41:10;1.88;;;1.40;;
72864;SDS011;61000;48.120;11.548;2023-07-30T08:43:37;1.38;;;1.27;;
72864;SDS011;61000;48.120;11.548;2023-07-30T08:46:04;4.95;;;2.10;;
72864;SDS011;61000;48.120;11.548;2023-07-30T08:48:32;1.60;;;1.50;;
72864;SDS011;61000;48.120;11.548;2023-07-30T08:50:59;2.55;;;1.90;;
72864;SDS011;61000;48.120;11.548;2023-07-30T08:53:26;5.32;;;2.38;;
72864;SDS011;61000;48.120;11.548;2023-07-30T08:55:53;3.92;;;1.55;;
72864;SDS011;61000;48.120;11.548;2023-07-30T08:58:21;2.65;;;1.30;;
72864;SDS011;61000;48.120;11.548;2023-07-30T09:00:51;3.20;;;1.50;;
72864;SDS011;61000;48.120;11.548;2023-07-30T09:03:21;1.95;;;1.40;;
72864;SDS011;61000;48.120;11.548;2023-07-30T09:05:51;2.35;;;1.60;;
72864;SDS011;61000;48.120;11.548;2023-07-30T09:08:18;1.65;;;1.55;;
72864;SDS011;61000;48.120;11.548;2023-07-30T09:10:46;2.65;;;1.52;;
72864;SDS011;61000;48.120;11.548;2023-07-30T09:13:20;2.00;;;1.60;;
72864;SDS011;61000;48.120;11.548;2023-07-30T09:15:48;1.33;;;1.23;;
72864;SDS011;61000;48.120;11.548;2023-07-30T09:18:16;1.55;;;1.40;;
72864;SDS011;61000;48.120;11.548;2023-07-30T09:20:43;1.30;;;1.20;;
72864;SDS011;61000;48.120;11.548;2023-07-30T09:23:12;1.33;;;1.20;;
72864;SDS011;61000;48.120;11.548;2023-07-30T09:25:38;3.97;;;1.20;;
72864;SDS011;61000;48.120;11.548;2023-07-30T09:28:05;1.40;;;1.30;;
72864;SDS011;61000;48.120;11.548;2023-07-30T09:30:32;1.45;;;1.35;;
72864;SDS011;61000;48.120;11.548;2023-07-30T09:32:59;1.33;;;1.23;;
72864;SDS011;61000;48.120;11.548;2023-07-30T09:35:26;1.70;;;1.50;;
72864;SDS011;61000;48.120;11.548;2023-07-30T09:37:57;1.55;;;1.40;;
72864;SDS011;61000;48.120;11.548;2023-07-30T09:40:34;2.28;;;1.30;;
72864;SDS011;61000;48.120;11.548;2023-07-30T09:43:04;1.77;;;1.27;;
72864;SDS011;61000;48.120;11.548;2023-07-30T09:45:33;1.20;;;1.10;;
72864;SDS011;61000;48.120;11.548;2023-07-30T09:48:01;1.30;;;1.20;;
72864;SDS011;61000;48.120;11.548;2023-07-30T09:50:30;2.08;;;1.20;;
72864;SDS011;61000;48.120;11.548;2023-07-30T09:52:58;1.55;;;1.33;;
72864;SDS011;61000;48.120;11.548;2023-07-30T09:55:27;1.27;;;1.10;;
72864;SDS011;61000;48.120;11.548;2023-07-30T09:57:55;1.35;;;1.25;;
72864;SDS011;61000;48.120;11.548;2023-07-30T10:00:23;2.63;;;1.63;;
72864;SDS011;61000;48.120;11.548;2023-07-30T10:02:50;3.28;;;1.58;;
72864;SDS011;61000;48.120;11.548;2023-07-30T10:05:19;1.40;;;1.10;;
72864;SDS011;61000;48.120;11.548;2023-07-30T10:07:49;1.27;;;1.08;;
72864;SDS011;61000;48.120;11.548;2023-07-30T10:10:19;3.15;;;1.20;;
72864;SDS011;61000;48.120;11.548;2023-07-30T10:12:47;2.42;;;1.15;;
72864;SDS011;61000;48.120;11.548;2023-07-30T10:15:19;2.05;;;1.30;;
72864;SDS011;61000;48.120;11.548;2023-07-30T10:17:48;1.05;;;0.95;;
72864;SDS011;61000;48.120;11.548;2023-07-30T10:20:22;1.95;;;1.75;;
72864;SDS011;61000;48.120;11.548;2023-07-30T10:22:53;1.33;;;1.10;;
72864;SDS011;61000;48.120;11.548;2023-07-30T10:25:21;2.42;;;1.20;;
72864;SDS011;61000;48.120;11.548;2023-07-30T10:27:49;1.10;;;1.00;;
72864;SDS011;61000;48.120;11.548;2023-07-30T10:30:17;1.20;;;1.10;;
72864;SDS011;61000;48.120;11.548;2023-07-30T10:32:59;1.55;;;1.45;;
72864;SDS011;61000;48.120;11.548;2023-07-30T10:35:40;1.48;;;1.27;;
72864;SDS011;61000;48.120;11.548;2023-07-30T10:38:15;1.15;;;1.05;;
72864;SDS011;61000;48.120;11.548;2023-07-30T10:43:33;1.48;;;1.20;;
72864;SDS011;61000;48.120;11.548;2023-07-30T10:46:02;1.42;;;1.33;;
72864;SDS011;61000;48.120;11.548;2023-07-30T10:48:33;1.85;;;1.40;;
72864;SDS011;61000;48.120;11.548;2023-07-30T10:51:02;2.28;;;1.60;;
72864;SDS011;61000;48.120;11.548;2023-07-30T10:53:30;1.77;;;1.30;;
72864;SDS011;61000;48.120;11.548;2023-07-30T10:55:58;2.22;;;1.42;;
72864;SDS011;61000;48.120;11.548;2023-07-30T10:58:28;1.85;;;1.30;;
72864;SDS011;61000;48.120;11.548;2023-07-30T11:00:56;1.50;;;1.40;;
72864;SDS011;61000;48.120;11.548;2023-07-30T11:03:25;1.92;;;1.40;;
72864;SDS011;61000;48.120;11.548;2023-07-30T11:05:53;1.92;;;1.40;;
72864;SDS011;61000;48.120;11.548;2023-07-30T11:08:21;1.63;;;1.45;;
72864;SDS011;61000;48.120;11.548;2023-07-30T11:10:58;1.80;;;1.38;;
72864;SDS011;61000;48.120;11.548;2023-07-30T11:13:25;1.45;;;1.30;;
72864;SDS011;61000;48.120;11.548;2023-07-30T11:15:52;2.58;;;1.70;;
72864;SDS011;61000;48.120;11.548;2023-07-30T11:18:19;3.33;;;1.50;;
72864;SDS011;61000;48.120;11.548;2023-07-30T11:20:47;3.83;;;1.55;;
72864;SDS011;61000;48.120;11.548;2023-07-30T11:23:19;1.50;;;1.33;;
72864;SDS011;61000;48.120;11.548;2023-07-30T11:25:48;1.92;;;1.60;;
72864;SDS011;61000;48.120;11.548;2023-07-30T11:28:26;1.67;;;1.40;;
72864;SDS011;61000;48.120;11.548;2023-07-30T11:30:55;1.92;;;1.45;;
72864;SDS011;61000;48.120;11.548;2023-07-30T11:33:24;4.20;;;1.75;;
72864;SDS011;61000;48.120;11.548;2023-07-30T11:35:52;1.23;;;1.13;;
72864;SDS011;61000;48.120;11.548;2023-07-30T11:38:20;1.75;;;1.55;;
72864;SDS011;61000;48.120;11.548;2023-07-30T11:40:48;2.45;;;1.17;;
72864;SDS011;61000;48.120;11.548;2023-07-30T11:43:15;2.25;;;1.38;;
72864;SDS011;61000;48.120;11.548;2023-07-30T11:45:42;3.38;;;1.23;;
72864;SDS011;61000;48.120;11.548;2023-07-30T11:48:09;1.33;;;1.20;;
72864;SDS011;61000;48.120;11.548;2023-07-30T11:50:46;3.15;;;1.30;;
72864;SDS011;61000;48.120;11.548;2023-07-30T11:53:15;1.63;;;1.30;;
72864;SDS011;61000;48.120;11.548;2023-07-30T11:55:42;1.30;;;1.20;;
72864;SDS011;61000;48.120;11.548;2023-07-30T11:58:11;1.77;;;1.52;;
72864;SDS011;61000;48.120;11.548;2023-07-30T12:00:40;2.83;;;1.30;;
72864;SDS011;61000;48.120;11.548;2023-07-30T12:03:10;4.63;;;1.77;;
72864;SDS011;61000;48.120;11.548;2023-07-30T12:05:38;1.60;;;1.50;;
72864;SDS011;61000;48.120;11.548;2023-07-30T12:08:06;1.30;;;1.20;;
72864;SDS011;61000;48.120;11.548;2023-07-30T12:10:44;1.50;;;1.30;;
72864;SDS011;61000;48.120;11.548;2023-07-30T12:13:14;1.60;;;1.50;;
72864;SDS011;61000;48.120;11.548;2023-07-30T12:15:43;1.98;;;1.52;;
72864;SDS011;61000;48.120;11.548;2023-07-30T12:18:10;1.63;;;1.38;;
72864;SDS011;61000;48.120;11.548;2023-07-30T12:20:37;1.20;;;1.10;;
72864;SDS011;61000;48.120;11.548;2023-07-30T12:23:04;2.00;;;1.30;;
72864;SDS011;61000;48.120;11.548;2023-07-30T12:25:31;2.97;;;1.55;;
72864;SDS011;61000;48.120;11.548;2023-07-30T12:28:02;1.58;;;1.48;;
72864;SDS011;61000;48.120;11.548;2023-07-30T12:30:30;2.42;;;1.63;;
72864;SDS011;61000;48.120;11.548;2023-07-30T12:32:57;2.33;;;1.50;;
72864;SDS011;61000;48.120;11.548;2023-07-30T12:35:24;1.58;;;1.48;;
72864;SDS011;61000;48.120;11.548;2023-07-30T12:37:51;3.47;;;1.92;;
72864;SDS011;61000;48.120;11.548;2023-07-30T12:40:19;1.83;;;1.48;;
72864;SDS011;61000;48.120;11.548;2023-07-30T12:42:46;3.42;;;1.60;;
72864;SDS011;61000;48.120;11.548;2023-07-30T12:45:16;1.45;;;1.35;;
72864;SDS011;61000;48.120;11.548;2023-07-30T12:47:43;5.32;;;1.90;;
72864;SDS011;61000;48.120;11.548;2023-07-30T12:50:10;1.98;;;1.50;;
72864;SDS011;61000;48.120;11.548;2023-07-30T12:52:37;2.72;;;1.70;;
72864;SDS011;61000;48.120;11.548;2023-07-30T12:55:04;2.13;;;1.70;;
72864;SDS011;61000;48.120;11.548;2023-07-30T12:57:32;1.98;;;1.77;;
72864;SDS011;61000;48.120;11.548;2023-07-30T12:59:58;1.58;;;1.33;;
72864;SDS011;61000;48.120;11.548;2023-07-30T13:02:29;2.55;;;1.73;;
72864;SDS011;61000;48.120;11.548;2023-07-30T13:04:58;1.75;;;1.60;;
72864;SDS011;61000;48.120;11.548;2023-07-30T13:07:56;3.40;;;1.48;;
72864;SDS011;61000;48.120;11.548;2023-07-30T13:10:19;1.90;;;1.60;;
72864;SDS011;61000;48.120;11.548;2023-07-30T13:12:50;2.08;;;1.90;;
72864;SDS011;61000;48.120;11.548;2023-07-30T13:15:19;2.35;;;1.60;;
72864;SDS011;61000;48.120;11.548;2023-07-30T13:18:10;1.80;;;1.60;;
72864;SDS011;61000;48.120;11.548;2023-07-30T13:20:38;2.25;;;1.70;;
72864;SDS011;61000;48.120;11.548;2023-07-30T13:23:08;3.00;;;1.90;;
72864;SDS011;61000;48.120;11.548;2023-07-30T13:25:39;2.33;;;1.65;;
72864;SDS011;61000;48.120;11.548;2023-07-30T13:28:06;2.85;;;1.60;;
72864;SDS011;61000;48.120;11.548;2023-07-30T13:30:32;1.60;;;1.50;;
72864;SDS011;61000;48.120;11.548;2023-07-30T13:32:59;1.50;;;1.40;;
72864;SDS011;61000;48.120;11.548;2023-07-30T13:35:28;4.10;;;1.70;;
72864;SDS011;61000;48.120;11.548;2023-07-30T13:37:54;1.98;;;1.60;;
72864;SDS011;61000;48.120;11.548;2023-07-30T13:40:21;1.70;;;1.60;;
72864;SDS011;61000;48.120;11.548;2023-07-30T13:42:49;1.67;;;1.45;;
72864;SDS011;61000;48.120;11.548;2023-07-30T13:45:16;2.78;;;2.58;;
72864;SDS011;61000;48.120;11.548;2023-07-30T13:47:43;4.50;;;1.80;;
72864;SDS011;61000;48.120;11.548;2023-07-30T13:50:10;3.30;;;2.53;;
72864;SDS011;61000;48.120;11.548;2023-07-30T13:52:38;3.40;;;2.33;;
72864;SDS011;61000;48.120;11.548;2023-07-30T13:55:05;3.70;;;2.33;;
72864;SDS011;61000;48.120;11.548;2023-07-30T13:57:33;2.50;;;2.15;;
72864;SDS011;61000;48.120;11.548;2023-07-30T13:59:59;5.28;;;1.98;;
72864;SDS011;61000;48.120;11.548;2023-07-30T14:02:26;2.20;;;1.77;;
72864;SDS011;61000;48.120;11.548;2023-07-30T14:04:53;3.15;;;1.75;;
72864;SDS011;61000;48.120;11.548;2023-07-30T14:07:20;4.25;;;2.08;;
72864;SDS011;61000;48.120;11.548;2023-07-30T14:09:50;1.83;;;1.60;;
72864;SDS011;61000;48.120;11.548;2023-07-30T14:12:17;4.50;;;2.20;;
72864;SDS011;61000;48.120;11.548;2023-07-30T14:14:44;2.90;;;2.00;;
72864;SDS011;61000;48.120;11.548;2023-07-30T14:17:11;2.20;;;2.00;;
72864;SDS011;61000;48.120;11.548;2023-07-30T14:19:38;3.58;;;1.90;;
72864;SDS011;61000;48.120;11.548;2023-07-30T14:22:05;2.03;;;1.83;;
72864;SDS011;61000;48.120;11.548;2023-07-30T14:24:32;2.38;;;1.80;;
72864;SDS011;61000;48.120;11.548;2023-07-30T14:27:00;3.72;;;2.45;;
72864;SDS011;61000;48.120;11.548;2023-07-30T14:29:27;2.60;;;1.92;;
72864;SDS011;61000;48.120;11.548;2023-07-30T14:31:54;3.30;;;1.75;;
72864;SDS011;61000;48.120;11.548;2023-07-30T14:34:21;1.85;;;1.70;;
72864;SDS011;61000;48.120;11.548;2023-07-30T14:36:49;3.22;;;1.70;;
72864;SDS011;61000;48.120;11.548;2023-07-30T14:39:16;3.45;;;2.10;;